createdAt,value
2018-04-22T00:01:04.856Z,91.00
2018-04-22T00:03:33.103Z,91.20
2018-04-22T00:06:00.633Z,91.10
2018-04-22T00:08:28.108Z,91.10
2018-04-22T00:10:55.613Z,91.20
2018-04-22T00:13:23.841Z,90.80
2018-04-22T00:15:51.328Z,90.80
2018-04-22T00:18:19.152Z,90.80
2018-04-22T00:20:46.623Z,91.00
2018-04-22T00:23:14.108Z,91.30
2018-04-22T00:25:41.589Z,91.50
2018-04-22T00:28:09.075Z,91.90
2018-04-22T00:30:36.553Z,92.10
2018-04-22T00:33:04.036Z,92.30
2018-04-22T00:35:31.511Z,92.40
2018-04-22T00:37:59.758Z,92.40
2018-04-22T00:40:27.242Z,92.40
2018-04-22T00:42:54.724Z,92.10
2018-04-22T00:45:22.202Z,92.00
2018-04-22T00:47:49.682Z,91.90
2018-04-22T00:50:17.155Z,91.90
2018-04-22T00:52:44.632Z,92.20
2018-04-22T00:55:12.864Z,92.40
2018-04-22T00:57:40.368Z,92.30
2018-04-22T01:00:08.591Z,92.30
2018-04-22T01:02:36.086Z,92.30
2018-04-22T01:05:04.323Z,92.20
2018-04-22T01:07:31.817Z,92.20
2018-04-22T01:10:00.126Z,92.40
2018-04-22T01:12:27.606Z,92.40
2018-04-22T01:14:55.110Z,92.60
2018-04-22T01:17:23.356Z,92.90
2018-04-22T01:19:50.833Z,92.90
2018-04-22T01:22:18.321Z,93.10
2018-04-22T01:24:45.832Z,93.00
2018-04-22T01:27:13.303Z,93.20
2018-04-22T01:29:42.296Z,93.20
2018-04-22T01:32:09.779Z,93.20
2018-04-22T01:34:38.033Z,93.60
2018-04-22T01:37:05.496Z,93.50
2018-04-22T01:39:33.744Z,93.70
2018-04-22T01:42:01.228Z,93.70
2018-04-22T01:44:28.703Z,93.90
2018-04-22T01:46:56.948Z,94.00
2018-04-22T01:49:25.223Z,94.20
2018-04-22T01:51:52.666Z,94.20
2018-04-22T01:54:20.361Z,94.30
2018-04-22T01:56:48.591Z,94.40
2018-04-22T01:59:16.072Z,94.40
2018-04-22T02:01:43.543Z,94.30
2018-04-22T02:04:11.033Z,94.30
2018-04-22T02:06:38.510Z,94.20
2018-04-22T02:09:06.000Z,94.10
2018-04-22T02:11:33.467Z,94.30
2018-04-22T02:14:00.960Z,94.20
2018-04-22T02:16:28.450Z,94.30
2018-04-22T02:18:55.944Z,94.20
2018-04-22T02:21:23.534Z,94.30
2018-04-22T02:23:51.029Z,94.50
2018-04-22T02:26:18.514Z,94.40
2018-04-22T02:28:46.005Z,94.60
2018-04-22T02:31:14.249Z,94.90
2018-04-22T02:33:41.733Z,94.80
2018-04-22T02:36:09.216Z,94.80
2018-04-22T02:38:36.695Z,94.80
2018-04-22T02:41:04.184Z,95.00
2018-04-22T02:43:32.465Z,95.30
2018-04-22T02:45:59.908Z,95.30
2018-04-22T02:48:28.897Z,95.70
2018-04-22T02:50:56.383Z,95.70
2018-04-22T02:53:24.796Z,95.90
2018-04-22T02:55:52.279Z,95.90
2018-04-22T02:58:19.752Z,96.00
2018-04-22T03:00:47.310Z,96.10
2018-04-22T03:03:14.776Z,96.10
2018-04-22T03:05:43.044Z,96.20
2018-04-22T03:08:10.524Z,96.20
2018-04-22T03:10:38.775Z,96.50
2018-04-22T03:13:06.249Z,96.50
2018-04-22T03:15:34.504Z,96.80
2018-04-22T03:18:01.985Z,96.70
2018-04-22T03:20:30.226Z,96.70
2018-04-22T03:22:57.720Z,96.70
2018-04-22T03:25:25.974Z,96.60
2018-04-22T03:27:53.457Z,96.50
2018-04-22T03:30:20.955Z,96.70
2018-04-22T03:32:48.445Z,96.70
2018-04-22T03:35:15.908Z,96.70
2018-04-22T03:37:43.416Z,96.70
2018-04-22T03:40:10.884Z,96.70
2018-04-22T03:42:38.355Z,96.80
2018-04-22T03:45:05.839Z,96.90
2018-04-22T03:47:34.105Z,96.90
2018-04-22T03:50:01.593Z,96.90
2018-04-22T03:52:29.056Z,97.00
2018-04-22T03:54:56.547Z,97.20
2018-04-22T03:57:24.020Z,97.00
2018-04-22T03:59:51.506Z,97.00
2018-04-22T04:02:19.851Z,97.30
2018-04-22T04:04:47.343Z,97.30
2018-04-22T04:07:15.763Z,97.90
2018-04-22T04:09:43.264Z,97.80
2018-04-22T04:12:10.732Z,98.00
2018-04-22T04:14:38.978Z,98.70
2018-04-22T04:17:07.971Z,98.80
2018-04-22T04:19:47.201Z,98.80
2018-04-22T04:22:27.440Z,98.90
2018-04-22T04:25:21.899Z,99.10
2018-04-22T04:27:50.165Z,99.10
2018-04-22T04:30:18.444Z,99.20
2018-04-22T04:32:46.688Z,99.30
2018-04-22T04:35:14.162Z,99.20
2018-04-22T04:37:42.432Z,99.30
2018-04-22T04:40:09.882Z,99.30
2018-04-22T04:42:37.358Z,99.20
2018-04-22T04:45:05.596Z,99.50
2018-04-22T04:47:33.066Z,99.50
2018-04-22T04:50:00.558Z,99.60
2018-04-22T04:52:28.195Z,99.60
2018-04-22T04:54:55.676Z,99.40
2018-04-22T04:57:23.167Z,99.60
2018-04-22T04:59:50.648Z,99.80
2018-04-22T05:02:18.139Z,99.90
2018-04-22T05:04:46.376Z,99.90
2018-04-22T05:07:13.864Z,99.90
2018-04-22T05:09:41.330Z,99.90
2018-04-22T05:12:09.579Z,99.90
2018-04-22T05:14:37.064Z,99.90
2018-04-22T05:17:05.322Z,99.90
2018-04-22T05:19:34.312Z,99.90
2018-04-22T05:22:01.796Z,99.90
2018-04-22T05:24:30.424Z,99.90
2018-04-22T05:26:57.894Z,99.90
2018-04-22T05:29:25.576Z,99.90
2018-04-22T05:31:53.063Z,99.90
2018-04-22T05:34:20.524Z,99.90
2018-04-22T05:36:48.018Z,99.90
2018-04-22T05:39:20.607Z,99.90
2018-04-22T05:41:48.118Z,99.90
2018-04-22T05:44:16.337Z,99.90
2018-04-22T05:46:43.820Z,99.90
2018-04-22T05:49:12.075Z,99.90
2018-04-22T05:51:39.561Z,99.90
2018-04-22T05:54:07.800Z,99.90
2018-04-22T05:56:35.291Z,99.90
2018-04-22T05:59:03.627Z,99.90
2018-04-22T06:01:31.629Z,99.90
2018-04-22T06:03:59.968Z,99.90
2018-04-22T06:06:27.465Z,99.90
2018-04-22T06:08:55.016Z,99.90
2018-04-22T06:11:22.608Z,99.90
2018-04-22T06:13:50.102Z,99.90
2018-04-22T06:16:17.574Z,99.90
2018-04-22T06:18:45.113Z,99.90
2018-04-22T06:21:12.667Z,99.90
2018-04-22T06:23:40.251Z,99.90
2018-04-22T06:26:07.738Z,99.90
2018-04-22T06:28:35.287Z,99.90
2018-04-22T06:31:03.661Z,99.90
2018-04-22T06:33:31.669Z,99.90
2018-04-22T06:38:34.414Z,99.90
2018-04-22T06:41:01.895Z,99.90
2018-04-22T06:43:30.175Z,99.90
2018-04-22T06:45:58.452Z,99.90
2018-04-22T06:48:26.804Z,99.90
2018-04-22T06:50:55.172Z,99.90
2018-04-22T06:53:22.716Z,99.90
2018-04-22T06:55:50.233Z,99.90
2018-04-22T06:58:18.504Z,99.90
2018-04-22T07:00:46.157Z,99.90
2018-04-22T07:03:13.724Z,99.90
2018-04-22T07:05:42.217Z,99.90
2018-04-22T07:08:10.497Z,99.90
2018-04-22T07:10:37.981Z,99.90
2018-04-22T07:13:05.508Z,99.60
2018-04-22T07:15:34.039Z,99.60
2018-04-22T07:18:01.590Z,99.60
2018-04-22T07:20:29.247Z,99.40
2018-04-22T07:22:56.802Z,99.30
2018-04-22T07:25:24.350Z,99.50
2018-04-22T07:27:51.849Z,99.00
2018-04-22T07:30:19.355Z,99.10
2018-04-22T07:32:46.879Z,99.00
2018-04-22T07:35:14.535Z,98.80
2018-04-22T07:37:42.854Z,98.70
2018-04-22T07:40:10.398Z,98.70
2018-04-22T07:42:38.758Z,98.60
2018-04-22T07:45:06.574Z,98.60
2018-04-22T07:47:34.338Z,98.40
2018-04-22T07:50:02.230Z,97.20
2018-04-22T07:52:30.599Z,96.40
2018-04-22T07:54:58.093Z,96.40
2018-04-22T07:57:26.380Z,95.70
2018-04-22T07:59:53.898Z,95.70
2018-04-22T08:02:22.361Z,95.50
2018-04-22T08:04:50.037Z,95.40
2018-04-22T08:07:17.611Z,95.30
2018-04-22T08:09:45.293Z,95.30
2018-04-22T08:12:13.232Z,95.30
2018-04-22T08:14:41.085Z,95.30
2018-04-22T08:17:08.807Z,94.90
2018-04-22T08:19:37.623Z,95.20
2018-04-22T08:22:05.558Z,94.70
2018-04-22T08:24:33.885Z,94.50
2018-04-22T08:27:01.761Z,94.50
2018-04-22T08:29:30.090Z,94.50
2018-04-22T08:31:57.731Z,94.20
2018-04-22T08:34:26.126Z,93.90
2018-04-22T08:36:53.857Z,93.80
2018-04-22T08:39:22.883Z,93.60
2018-04-22T08:41:51.269Z,93.70
2018-04-22T08:44:18.889Z,93.70
2018-04-22T08:46:47.292Z,92.90
2018-04-22T08:49:15.114Z,92.90
2018-04-22T08:51:42.814Z,93.00
2018-04-22T08:54:10.461Z,92.60
2018-04-22T08:56:38.397Z,92.60
2018-04-22T08:59:05.961Z,92.40
2018-04-22T09:01:33.604Z,92.80
2018-04-22T09:04:01.150Z,92.70
2018-04-22T09:06:28.706Z,91.70
2018-04-22T09:08:56.238Z,91.80
2018-04-22T09:11:24.598Z,91.50
2018-04-22T09:13:52.218Z,91.50
2018-04-22T09:16:19.825Z,91.70
2018-04-22T09:18:48.090Z,91.30
2018-04-22T09:21:15.890Z,91.40
2018-04-22T09:23:44.228Z,91.20
2018-04-22T09:26:11.968Z,91.20
2018-04-22T09:28:40.349Z,90.40
2018-04-22T09:31:08.089Z,91.00
2018-04-22T09:33:35.619Z,91.50
2018-04-22T09:36:03.267Z,90.20
2018-04-22T09:38:30.751Z,90.70
2018-04-22T09:40:59.041Z,90.70
2018-04-22T09:43:26.599Z,90.60
2018-04-22T09:45:54.398Z,91.10
2018-04-22T09:48:21.967Z,90.20
2018-04-22T09:50:49.570Z,90.50
2018-04-22T09:53:17.115Z,90.30
2018-04-22T09:55:45.427Z,91.00
2018-04-22T09:58:13.005Z,90.70
2018-04-22T10:00:40.973Z,91.00
2018-04-22T10:03:09.498Z,90.20
2018-04-22T10:05:42.747Z,90.20
2018-04-22T10:08:10.292Z,89.90
2018-04-22T10:10:37.811Z,89.60
2018-04-22T10:13:06.162Z,88.40
2018-04-22T10:15:33.884Z,88.40
2018-04-22T10:18:01.491Z,86.70
2018-04-22T10:20:29.975Z,86.60
2018-04-22T10:22:57.504Z,86.50
2018-04-22T10:25:25.112Z,88.40
2018-04-22T10:27:52.661Z,88.40
2018-04-22T10:30:20.189Z,84.40
2018-04-22T10:32:47.695Z,83.50
2018-04-22T10:35:15.319Z,82.80
2018-04-22T10:37:43.601Z,80.30
2018-04-22T10:40:11.200Z,80.20
2018-04-22T10:42:39.655Z,80.60
2018-04-22T10:45:08.265Z,79.30
2018-04-22T10:47:35.860Z,79.30
2018-04-22T10:50:03.475Z,80.00
2018-04-22T10:52:31.113Z,80.60
2018-04-22T10:54:59.382Z,82.00
2018-04-22T10:57:26.947Z,81.90
2018-04-22T10:59:54.578Z,82.30
2018-04-22T11:02:22.143Z,80.10
2018-04-22T11:04:49.732Z,80.40
2018-04-22T11:07:17.293Z,81.70
2018-04-22T11:09:44.775Z,81.10
2018-04-22T11:12:12.289Z,83.20
2018-04-22T11:14:40.001Z,80.80
2018-04-22T11:17:12.309Z,79.20
2018-04-22T11:19:39.838Z,79.20
2018-04-22T11:22:07.559Z,79.90
2018-04-22T11:24:35.920Z,78.00
2018-04-22T11:27:03.445Z,77.60
2018-04-22T11:29:31.072Z,76.80
2018-04-22T11:31:59.343Z,76.50
2018-04-22T11:34:26.902Z,76.50
2018-04-22T11:36:54.441Z,74.30
2018-04-22T11:39:21.920Z,73.60
2018-04-22T11:41:49.472Z,73.30
2018-04-22T11:44:16.948Z,72.40
2018-04-22T11:46:45.188Z,72.50
2018-04-22T11:49:12.803Z,72.40
2018-04-22T11:51:41.086Z,73.10
2018-04-22T11:54:08.696Z,73.20
2018-04-22T11:56:36.444Z,73.50
2018-04-22T11:59:03.999Z,72.10
2018-04-22T12:01:31.552Z,71.70
2018-04-22T12:03:59.059Z,71.80
2018-04-22T12:06:27.306Z,66.00
2018-04-22T12:08:54.928Z,66.00
2018-04-22T12:11:22.399Z,67.90
2018-04-22T12:13:49.882Z,64.40
2018-04-22T12:16:18.872Z,63.10
2018-04-22T12:18:47.103Z,63.90
2018-04-22T12:21:14.579Z,63.90
2018-04-22T12:23:42.277Z,62.80
2018-04-22T12:26:09.756Z,65.90
2018-04-22T12:28:38.105Z,67.20
2018-04-22T12:31:05.602Z,67.30
2018-04-22T12:33:33.076Z,66.80
2018-04-22T12:36:00.603Z,67.70
2018-04-22T12:38:28.875Z,67.70
2018-04-22T12:40:57.128Z,69.20
2018-04-22T12:43:25.381Z,68.40
2018-04-22T12:45:52.876Z,68.40
2018-04-22T12:48:20.363Z,70.10
2018-04-22T12:50:47.864Z,70.10
2018-04-22T12:53:15.335Z,72.00
2018-04-22T12:55:42.826Z,71.60
2018-04-22T12:58:10.338Z,72.70
2018-04-22T13:00:37.969Z,72.00
2018-04-22T13:03:05.506Z,72.10
2018-04-22T13:05:32.984Z,71.00
2018-04-22T13:08:00.599Z,71.20
2018-04-22T13:10:28.132Z,73.80
2018-04-22T13:12:55.630Z,78.10
2018-04-22T13:15:23.859Z,97.80
2018-04-22T13:17:51.352Z,97.70
2018-04-22T13:20:19.618Z,99.90
2018-04-22T13:22:47.162Z,99.90
2018-04-22T13:25:14.692Z,99.90
2018-04-22T13:27:42.240Z,99.90
2018-04-22T13:30:09.769Z,99.90
2018-04-22T13:32:38.030Z,99.90
2018-04-22T13:35:05.494Z,99.90
2018-04-22T13:37:33.772Z,99.90
2018-04-22T13:40:02.106Z,99.90
2018-04-22T13:42:29.583Z,99.90
2018-04-22T13:44:57.072Z,99.90
2018-04-22T13:47:25.350Z,99.90
2018-04-22T13:49:53.587Z,99.90
2018-04-22T13:52:21.150Z,99.90
2018-04-22T13:54:50.154Z,99.90
2018-04-22T13:57:18.463Z,99.90
2018-04-22T13:59:47.245Z,99.90
2018-04-22T14:02:14.805Z,99.90
2018-04-22T14:04:43.114Z,99.90
2018-04-22T14:07:10.640Z,99.90
2018-04-22T14:09:38.978Z,99.80
2018-04-22T14:12:06.508Z,99.80
2018-04-22T14:14:34.101Z,98.70
2018-04-22T14:17:01.573Z,97.70
2018-04-22T14:19:29.099Z,98.00
2018-04-22T14:21:56.581Z,97.20
2018-04-22T14:24:24.071Z,98.50
2018-04-22T14:26:55.793Z,96.00
2018-04-22T14:29:24.319Z,96.20
2018-04-22T14:31:51.860Z,96.50
2018-04-22T14:34:19.368Z,94.30
2018-04-22T14:36:46.892Z,94.00
2018-04-22T14:39:15.499Z,96.90
2018-04-22T14:41:43.034Z,96.90
2018-04-22T14:44:22.443Z,96.50
2018-04-22T14:46:50.712Z,94.80
2018-04-22T14:49:19.389Z,94.90
2018-04-22T14:51:47.907Z,96.10
2018-04-22T14:54:15.414Z,96.10
2018-04-22T14:56:43.682Z,95.60
2018-04-22T14:59:11.216Z,95.20
2018-04-22T15:01:38.790Z,94.70
2018-04-22T15:04:06.283Z,93.70
2018-04-22T15:06:33.750Z,93.50
2018-04-22T15:09:02.005Z,92.80
2018-04-22T15:11:29.522Z,92.70
2018-04-22T15:13:57.105Z,92.70
2018-04-22T15:16:24.614Z,94.10
2018-04-22T15:18:52.880Z,93.80
2018-04-22T15:21:21.125Z,93.90
2018-04-22T15:23:49.821Z,93.60
2018-04-22T15:26:18.209Z,94.80
2018-04-22T15:28:46.558Z,93.40
2018-04-22T15:31:14.095Z,93.40
2018-04-22T15:33:41.507Z,94.00
2018-04-22T15:36:09.936Z,93.30
2018-04-22T15:38:37.559Z,93.30
2018-04-22T15:41:05.126Z,92.40
2018-04-22T15:43:32.640Z,92.30
2018-04-22T15:46:01.208Z,93.70
2018-04-22T15:48:28.723Z,93.70
2018-04-22T15:50:56.231Z,94.40
2018-04-22T15:53:23.946Z,94.50
2018-04-22T15:55:52.368Z,95.40
2018-04-22T15:58:19.981Z,95.40
2018-04-22T16:00:47.480Z,95.30
2018-04-22T16:03:14.992Z,95.60
2018-04-22T16:05:42.493Z,95.80
2018-04-22T16:08:09.988Z,95.30
2018-04-22T16:10:38.390Z,97.10
2018-04-22T16:13:05.927Z,97.10
2018-04-22T16:15:33.526Z,97.60
2018-04-22T16:18:01.075Z,97.90
2018-04-22T16:20:28.599Z,97.40
2018-04-22T16:22:56.972Z,97.60
2018-04-22T16:25:25.259Z,98.10
2018-04-22T16:27:53.554Z,98.10
2018-04-22T16:30:21.118Z,98.80
2018-04-22T16:32:49.371Z,99.50
2018-04-22T16:35:16.957Z,99.50
2018-04-22T16:37:44.395Z,99.90
2018-04-22T16:40:12.754Z,99.90
2018-04-22T16:42:40.238Z,99.90
2018-04-22T16:45:07.907Z,99.90
2018-04-22T16:47:36.155Z,99.90
2018-04-22T16:50:03.627Z,99.90
2018-04-22T16:52:31.929Z,99.90
2018-04-22T16:54:59.550Z,99.90
2018-04-22T16:57:27.814Z,99.20
2018-04-22T16:59:55.381Z,99.20
2018-04-22T17:02:22.867Z,99.90
2018-04-22T17:04:51.121Z,99.90
2018-04-22T17:07:19.508Z,99.90
2018-04-22T17:09:47.852Z,99.90
2018-04-22T17:12:16.025Z,99.90
2018-04-22T17:14:44.343Z,99.90
2018-04-22T17:17:12.642Z,99.90
2018-04-22T17:19:40.294Z,99.90
2018-04-22T17:22:07.844Z,99.90
2018-04-22T17:24:35.565Z,99.90
2018-04-22T17:27:03.149Z,99.90
2018-04-22T17:29:30.774Z,99.90
2018-04-22T17:31:58.474Z,99.90
2018-04-22T17:34:26.024Z,99.90
2018-04-22T17:36:53.750Z,99.90
2018-04-22T17:39:21.273Z,99.90
2018-04-22T17:41:49.537Z,99.90
2018-04-22T17:44:18.011Z,99.90
2018-04-22T17:46:46.314Z,99.20
2018-04-22T17:49:13.822Z,99.20
2018-04-22T17:51:41.384Z,97.30
2018-04-22T17:54:08.933Z,97.20
2018-04-22T17:56:36.523Z,95.00
2018-04-22T17:59:04.076Z,95.50
2018-04-22T18:01:32.394Z,93.70
2018-04-22T18:03:59.912Z,93.70
2018-04-22T18:06:28.236Z,90.30
2018-04-22T18:08:56.699Z,90.30
2018-04-22T18:11:24.301Z,87.10
2018-04-22T18:13:51.873Z,85.90
2018-04-22T18:16:19.520Z,84.40
2018-04-22T18:18:47.191Z,83.20
2018-04-22T18:21:14.663Z,81.40
2018-04-22T18:23:42.269Z,80.90
2018-04-22T18:26:09.833Z,80.50
2018-04-22T18:28:37.372Z,80.00
2018-04-22T18:31:04.878Z,79.00
2018-04-22T18:33:32.430Z,79.60
2018-04-22T18:36:00.018Z,79.30
2018-04-22T18:38:28.297Z,79.00
2018-04-22T18:40:56.562Z,79.00
2018-04-22T18:43:24.857Z,78.50
2018-04-22T18:45:52.412Z,78.50
2018-04-22T18:48:19.925Z,78.80
2018-04-22T18:50:47.663Z,77.40
2018-04-22T18:53:15.172Z,78.10
2018-04-22T18:55:42.685Z,78.60
2018-04-22T18:58:10.223Z,79.00
2018-04-22T19:00:38.480Z,79.20
2018-04-22T19:03:05.981Z,79.20
2018-04-22T19:05:33.463Z,79.80
2018-04-22T19:08:01.006Z,79.70
2018-04-22T19:10:28.507Z,80.90
2018-04-22T19:12:57.385Z,80.60
2018-04-22T19:15:24.906Z,81.20
2018-04-22T19:17:52.400Z,80.50
2018-04-22T19:20:20.720Z,82.00
2018-04-22T19:22:48.423Z,82.80
2018-04-22T19:25:15.917Z,83.40
2018-04-22T19:27:43.740Z,84.50
2018-04-22T19:30:11.244Z,86.20
2018-04-22T19:32:38.765Z,85.20
2018-04-22T19:35:06.258Z,87.70
2018-04-22T19:37:33.745Z,86.40
2018-04-22T19:40:01.320Z,89.50
2018-04-22T19:42:28.786Z,90.10
2018-04-22T19:44:56.506Z,89.20
2018-04-22T19:47:25.639Z,91.60
2018-04-22T19:49:53.124Z,91.60
2018-04-22T19:52:20.608Z,91.90
2018-04-22T19:54:48.853Z,90.80
2018-04-22T19:57:17.461Z,90.80
2018-04-22T19:59:45.765Z,91.60
2018-04-22T20:02:14.031Z,93.10
2018-04-22T20:04:42.280Z,92.90
2018-04-22T20:07:09.792Z,92.90
2018-04-22T20:09:37.261Z,93.60
2018-04-22T20:12:04.836Z,93.90
2018-04-22T20:14:32.298Z,94.30
2018-04-22T20:17:00.282Z,94.20
2018-04-22T20:19:28.589Z,94.80
2018-04-22T20:21:57.479Z,96.40
2018-04-22T20:24:26.489Z,96.60
2018-04-22T20:26:55.828Z,96.60
2018-04-22T20:29:23.289Z,96.40
2018-04-22T20:31:51.059Z,97.30
2018-04-22T20:34:18.529Z,97.50
2018-04-22T20:36:46.015Z,96.90
2018-04-22T20:39:14.248Z,98.10
2018-04-22T20:41:41.729Z,98.10
2018-04-22T20:44:09.988Z,98.30
2018-04-22T20:46:37.478Z,98.30
2018-04-22T20:49:04.979Z,97.70
2018-04-22T20:51:32.448Z,98.40
2018-04-22T20:54:00.305Z,98.70
2018-04-22T20:56:27.798Z,98.30
2018-04-22T20:58:56.071Z,99.30
2018-04-22T21:01:24.324Z,99.60
2018-04-22T21:03:51.805Z,99.50
2018-04-22T21:06:20.056Z,99.80
2018-04-22T21:08:47.580Z,99.80
2018-04-22T21:11:15.779Z,99.90
2018-04-22T21:13:43.263Z,99.90
2018-04-22T21:16:10.911Z,99.80
2018-04-22T21:18:38.400Z,99.90
2018-04-22T21:21:06.666Z,99.90
2018-04-22T21:23:34.904Z,99.90
2018-04-22T21:26:02.712Z,99.90
2018-04-22T21:28:30.981Z,99.90
2018-04-22T21:30:58.501Z,99.90
2018-04-22T21:33:26.003Z,99.90
2018-04-22T21:35:54.285Z,99.90
2018-04-22T21:38:21.768Z,99.90
2018-04-22T21:40:49.238Z,99.90
2018-04-22T21:43:16.727Z,99.90
2018-04-22T21:45:44.213Z,99.90
2018-04-22T21:48:12.492Z,99.90
2018-04-22T21:50:40.748Z,99.90
2018-04-22T21:53:08.220Z,99.90
2018-04-22T21:55:36.480Z,99.90
2018-04-22T21:58:04.836Z,99.90
2018-04-22T22:00:32.307Z,99.90
2018-04-22T22:03:01.297Z,99.90
2018-04-22T22:05:29.571Z,99.90
2018-04-22T22:07:57.048Z,99.90
2018-04-22T22:10:25.313Z,99.90
2018-04-22T22:12:52.787Z,99.90
2018-04-22T22:15:21.045Z,99.90
2018-04-22T22:17:48.524Z,99.90
2018-04-22T22:20:16.771Z,99.90
2018-04-22T22:22:44.248Z,99.90
2018-04-22T22:25:12.488Z,99.90
2018-04-22T22:27:39.968Z,99.90
2018-04-22T22:30:08.214Z,99.90
2018-04-22T22:32:35.707Z,99.90
2018-04-22T22:35:04.071Z,99.90
2018-04-22T22:37:31.547Z,99.90
2018-04-22T22:39:59.820Z,99.90
2018-04-22T22:42:28.084Z,99.90
2018-04-22T22:44:55.571Z,99.90
2018-04-22T22:47:23.063Z,99.90
2018-04-22T22:49:50.524Z,99.90
2018-04-22T22:52:18.019Z,99.90
2018-04-22T22:54:45.532Z,99.90
2018-04-22T22:57:13.004Z,99.90
2018-04-22T22:59:40.503Z,99.90
2018-04-22T23:02:08.745Z,99.90
2018-04-22T23:04:36.235Z,99.90
2018-04-22T23:07:04.671Z,99.90
2018-04-22T23:09:32.176Z,99.90
2018-04-22T23:12:00.422Z,99.90
2018-04-22T23:14:27.900Z,99.90
2018-04-22T23:16:56.136Z,99.90
2018-04-22T23:19:23.634Z,99.90
2018-04-22T23:21:51.100Z,99.90
2018-04-22T23:24:18.605Z,99.90
2018-04-22T23:26:46.081Z,99.90
2018-04-22T23:29:13.580Z,99.90
2018-04-22T23:31:41.069Z,99.90
2018-04-22T23:34:08.536Z,99.90
2018-04-22T23:36:36.036Z,99.90
2018-04-22T23:39:03.506Z,99.90
2018-04-22T23:41:31.739Z,99.90
2018-04-22T23:43:59.211Z,99.90
2018-04-22T23:46:26.684Z,99.90
2018-04-22T23:48:54.920Z,99.90
2018-04-22T23:51:22.400Z,99.90
2018-04-22T23:53:49.867Z,99.90
2018-04-22T23:56:18.117Z,99.90
2018-04-22T23:58:45.610Z,99.90
